Terminal Aerodrome Forecast
Issued by NWS Knoxville/Tri Cities, TN

Home | Current Version | Previous Version | Text Only | Print | Product List | Glossary On
Versions: 1 2 3 4 5 6 7 8 9 10 11 12 13 14 15 16 17 18 19 20 21 22 23 24 25 26 27 28 29 30 31 32 33 34 35 36 37 38 39 40 41 42
000
FTUS44 KMRX 300525
TAFTYS
TAF
KTYS 300525Z 3006/0106 VRB03KT P6SM SCT070 BKN150
     FM301500 20006KT P6SM VCSH SCT050 BKN120
     FM301900 21010G15KT P6SM VCTS SCT040CB BKN080
      TEMPO 3020/3022 3SM SHRA BR BKN035 OVC080
     FM010200 22007KT P6SM VCTS BKN040CB OVC100=

USA.gov is the U.S. government's official web portal to all federal, state and local government web resources and services.